»·PEaware :: N722MA KTUS-KFLG

N722MA :: KTUS-KFLG

FLIGHT INFORMATION

Flight Status: Arrived
Operator: Privately registered:
United States
More flights under this callsign
Pilot: Zach A. (42710)
Aircraft: BEECH AIRCRAFT BONANZA
(BE36)
More flights by this aircraft type
Origin: KTUS Tucson Intl
United States
Destination: KFLG Flagstaff Pulliam
United States
More flights between these airports :: More routes between these airports
Route: TUS8 PXR V327 FLG
File this flight plan on PilotEdge
Remarks:
Altitude:
(Current/Filed)
10,000ft
Speed:
(Current/Filed)
157kts
Departed: 17-Jun-23 05:16 PM
Arrived: 17-Jun-23 06:39 PM
Distance/Time
Traveled:
185nm/1:23
Distance/Time
To Go:
Arrived

Flight Plot

Page will automatically refresh every two minutes.

Flight plan parsing failed; only flown route is shown


Map Options




Map Legend


Flown Route
Filed Route
Departure Airport
Arrival Airport
Navaid (VOR, NDB)
Fix

Horizontal Profiles

Position Reports

Time Latitude Longitude Heading Altitude Ground
Speed
17-Jun-23 16:42 32.125572 -110.945778 225 2569ft 0kts
17-Jun-23 16:43 32.125572 -110.945778 225 2569ft 0kts
17-Jun-23 16:44 32.125572 -110.945778 225 2569ft 0kts
17-Jun-23 16:45 32.125572 -110.945778 225 2569ft 0kts
17-Jun-23 16:46 32.125572 -110.945778 225 2569ft 0kts
17-Jun-23 16:46 32.125572 -110.945778 225 2569ft 0kts
17-Jun-23 16:48 32.125572 -110.945778 225 2569ft 0kts
17-Jun-23 16:49 32.125572 -110.945778 225 2569ft 0kts
17-Jun-23 16:50 32.125572 -110.945778 225 2569ft 0kts
17-Jun-23 16:51 32.125572 -110.945778 225 2569ft 0kts
17-Jun-23 16:51 32.125572 -110.945778 225 2569ft 0kts
17-Jun-23 16:52 32.125572 -110.945778 225 2569ft 0kts
17-Jun-23 16:54 32.125572 -110.945778 225 2569ft 0kts
17-Jun-23 16:55 32.125572 -110.945778 225 2569ft 0kts
17-Jun-23 16:56 32.125572 -110.945778 225 2569ft 0kts
17-Jun-23 16:56 32.125572 -110.945778 225 2569ft 0kts
17-Jun-23 16:57 32.125572 -110.945778 225 2569ft 0kts
17-Jun-23 16:58 32.125571 -110.945779 223 2569ft 0kts
17-Jun-23 16:59 32.126225 -110.945938 230 2568ft 7kts
17-Jun-23 17:00 32.123927 -110.946115 132 2572ft 12kts
17-Jun-23 17:01 32.120922 -110.942573 135 2587ft 18kts
17-Jun-23 17:02 32.117004 -110.937978 135 2596ft 17kts
17-Jun-23 17:03 32.114241 -110.934735 135 2610ft 12kts
17-Jun-23 17:04 32.110672 -110.930543 135 2617ft 23kts
17-Jun-23 17:05 32.106069 -110.925151 134 2638ft 18kts
17-Jun-23 17:06 32.103580 -110.922235 136 2642ft 9kts
17-Jun-23 17:07 32.102921 -110.921877 226 2643ft 0kts
17-Jun-23 17:08 32.102921 -110.921877 226 2643ft 0kts
17-Jun-23 17:09 32.102921 -110.921877 226 2643ft 0kts
17-Jun-23 17:10 32.102921 -110.921877 226 2643ft 0kts
17-Jun-23 17:11 32.102921 -110.921877 226 2643ft 0kts
17-Jun-23 17:12 32.102921 -110.921877 226 2643ft 0kts
17-Jun-23 17:13 32.102921 -110.921877 226 2643ft 0kts
17-Jun-23 17:14 32.102906 -110.921897 229 2643ft 2kts
17-Jun-23 17:15 32.109642 -110.931399 316 2796ft 90kts
17-Jun-23 17:16 32.123125 -110.923674 134 4008ft 106kts
17-Jun-23 17:17 32.120621 -110.932249 344 4727ft 98kts
17-Jun-23 17:18 32.146395 -110.948617 323 5675ft 103kts
17-Jun-23 17:19 32.171854 -110.965313 322 6263ft 105kts
17-Jun-23 17:20 32.199710 -110.983516 323 6551ft 115kts
17-Jun-23 17:21 32.228265 -111.001962 322 7299ft 116kts
17-Jun-23 17:22 32.257043 -111.020765 323 7892ft 119kts
17-Jun-23 17:23 32.286380 -111.039979 323 8516ft 121kts
17-Jun-23 17:24 32.316113 -111.059502 322 9192ft 123kts
17-Jun-23 17:25 32.346314 -111.079317 322 9851ft 124kts
17-Jun-23 17:26 32.376823 -111.099365 321 10476ft 125kts
17-Jun-23 17:27 32.407483 -111.119522 320 11093ft 126kts
17-Jun-23 17:28 32.438319 -111.139813 319 11675ft 128kts
17-Jun-23 17:29 32.470542 -111.161030 320 12027ft 141kts
17-Jun-23 17:30 32.507247 -111.185183 322 12033ft 157kts
17-Jun-23 17:31 32.545843 -111.210631 322 12042ft 160kts
17-Jun-23 17:32 32.584781 -111.236347 322 12042ft 160kts
17-Jun-23 17:33 32.623532 -111.261963 322 12033ft 159kts
17-Jun-23 17:34 32.662490 -111.287746 322 12020ft 160kts
17-Jun-23 17:35 32.701216 -111.313390 322 12007ft 158kts
17-Jun-23 17:36 32.739423 -111.338722 322 11987ft 156kts
17-Jun-23 17:37 32.777571 -111.364057 322 11974ft 158kts
17-Jun-23 17:38 32.816119 -111.389665 323 11961ft 159kts
17-Jun-23 17:39 32.854710 -111.415329 323 11939ft 159kts
17-Jun-23 17:40 32.893289 -111.441010 323 11938ft 158kts
17-Jun-23 17:41 32.931675 -111.466595 323 11932ft 158kts
17-Jun-23 17:42 32.969750 -111.492952 313 11931ft 155kts
17-Jun-23 17:43 33.002205 -111.526573 313 11960ft 154kts
17-Jun-23 17:44 33.034962 -111.560100 313 11958ft 155kts
17-Jun-23 17:45 33.067811 -111.593750 313 11964ft 156kts
17-Jun-23 17:46 33.100821 -111.627600 313 11963ft 156kts
17-Jun-23 17:47 33.133971 -111.661623 313 11961ft 158kts
17-Jun-23 17:48 33.167087 -111.695645 313 11968ft 158kts
17-Jun-23 17:49 33.200547 -111.730076 313 11966ft 159kts
17-Jun-23 17:50 33.234044 -111.764563 313 11966ft 159kts
17-Jun-23 17:51 33.267692 -111.799248 314 11965ft 160kts
17-Jun-23 17:52 33.301357 -111.833995 314 11964ft 160kts
17-Jun-23 17:53 33.335109 -111.868850 315 11956ft 160kts
17-Jun-23 17:54 33.368933 -111.903836 315 11959ft 161kts
17-Jun-23 17:55 33.402775 -111.938867 315 11953ft 161kts
17-Jun-23 17:56 33.439130 -111.968484 357 11950ft 167kts
17-Jun-23 17:57 33.485743 -111.958169 7 11957ft 170kts
17-Jun-23 17:58 33.532273 -111.947525 7 11956ft 170kts
17-Jun-23 17:59 33.578428 -111.936951 7 11961ft 168kts
17-Jun-23 18:00 33.624476 -111.926394 7 11974ft 168kts
17-Jun-23 18:01 33.670332 -111.915859 6 11980ft 167kts
17-Jun-23 18:02 33.715931 -111.905394 6 11986ft 166kts
17-Jun-23 18:03 33.761344 -111.894930 6 11996ft 166kts
17-Jun-23 18:04 33.806923 -111.884436 6 12003ft 166kts
17-Jun-23 18:05 33.852297 -111.873981 7 12011ft 165kts
17-Jun-23 18:06 33.897687 -111.863506 6 12020ft 167kts
17-Jun-23 18:07 33.943108 -111.853011 6 12024ft 167kts
17-Jun-23 18:08 33.988716 -111.842458 6 12033ft 166kts
17-Jun-23 18:09 34.034018 -111.831984 7 12041ft 166kts
17-Jun-23 18:10 34.080732 -111.821151 6 11786ft 173kts
17-Jun-23 18:11 34.126142 -111.810626 6 11787ft 163kts
17-Jun-23 18:12 34.171002 -111.800208 6 11791ft 165kts
17-Jun-23 18:13 34.216162 -111.791591 1 11795ft 163kts
17-Jun-23 18:14 34.261778 -111.785936 1 11800ft 164kts
17-Jun-23 18:15 34.306637 -111.780359 1 11803ft 162kts
17-Jun-23 18:16 34.352216 -111.774638 1 11803ft 163kts
17-Jun-23 18:17 34.397380 -111.768972 1 11805ft 163kts
17-Jun-23 18:18 34.443242 -111.763220 1 11816ft 167kts
17-Jun-23 18:19 34.489738 -111.757362 1 11819ft 168kts
17-Jun-23 18:20 34.536219 -111.751518 1 11850ft 167kts
17-Jun-23 18:21 34.582422 -111.745703 1 11877ft 167kts
17-Jun-23 18:22 34.629138 -111.739837 1 11830ft 173kts
17-Jun-23 18:23 34.678194 -111.733653 2 11491ft 181kts
17-Jun-23 18:24 34.728641 -111.727291 2 11148ft 182kts
17-Jun-23 18:25 34.779631 -111.720835 2 10797ft 185kts
17-Jun-23 18:26 34.830095 -111.714422 2 10418ft 170kts
17-Jun-23 18:27 34.875486 -111.708721 2 10028ft 163kts
17-Jun-23 18:28 34.920229 -111.703036 2 9841ft 153kts
17-Jun-23 18:29 34.960020 -111.697993 0 9818ft 128kts
17-Jun-23 18:30 34.994254 -111.693711 0 9939ft 127kts
17-Jun-23 18:31 35.030646 -111.689086 2 9982ft 128kts
17-Jun-23 18:32 35.063285 -111.684941 0 9992ft 112kts
17-Jun-23 18:33 35.095338 -111.679087 7 9192ft 119kts
17-Jun-23 18:34 35.123953 -111.664348 39 8243ft 111kts
17-Jun-23 18:35 35.144127 -111.637753 52 7997ft 99kts
17-Jun-23 18:36 35.164225 -111.641358 249 7610ft 84kts
17-Jun-23 18:37 35.149101 -111.659811 222 7094ft 81kts
17-Jun-23 18:38 35.142754 -111.668073 298 7006ft 0kts
17-Jun-23 18:39 35.140529 -111.670805 221 7001ft 19kts
17-Jun-23 18:40 35.136529 -111.675064 220 7013ft 17kts
17-Jun-23 18:41 35.136090 -111.676721 308 7013ft 0kts

Navigation Log

Ident Type
Flight plan parsing failed, navigation log unavailable